createdAt,value
2022-08-26T00:00:36.035Z,70.01
2022-08-26T00:03:40.849Z,70.21
2022-08-26T00:06:46.268Z,70.61
2022-08-26T00:09:49.951Z,70.48
2022-08-26T00:12:52.462Z,70.20
2022-08-26T00:15:55.033Z,70.89
2022-08-26T00:18:57.553Z,71.74
2022-08-26T00:22:00.168Z,71.62
2022-08-26T00:25:02.471Z,71.09
2022-08-26T00:28:06.390Z,70.88
2022-08-26T00:31:10.899Z,71.35
2022-08-26T00:34:15.339Z,72.24
2022-08-26T00:37:18.635Z,72.05
2022-08-26T00:40:45.938Z,71.44
2022-08-26T00:43:48.223Z,72.34
2022-08-26T00:46:54.914Z,72.55
2022-08-26T00:49:57.464Z,72.41
2022-08-26T00:53:01.264Z,72.57
2022-08-26T00:56:13.361Z,73.19
2022-08-26T00:59:17.227Z,72.77
2022-08-26T01:02:21.078Z,72.29
2022-08-26T01:05:24.394Z,73.03
2022-08-26T01:08:27.147Z,73.49
2022-08-26T01:11:31.091Z,73.80
2022-08-26T01:14:35.621Z,73.24
2022-08-26T01:17:39.658Z,73.16
2022-08-26T01:20:41.835Z,73.49
2022-08-26T01:23:48.435Z,73.82
2022-08-26T01:26:51.341Z,75.69
2022-08-26T01:29:53.658Z,75.27
2022-08-26T01:32:58.032Z,75.49
2022-08-26T01:36:00.891Z,75.70
2022-08-26T01:39:05.942Z,75.80
2022-08-26T01:42:14.106Z,76.04
2022-08-26T01:45:31.188Z,75.27
2022-08-26T01:48:35.537Z,75.67
2022-08-26T01:51:38.810Z,75.91
2022-08-26T01:54:41.911Z,76.03
2022-08-26T01:57:51.758Z,77.76
2022-08-26T02:00:58.911Z,76.72
2022-08-26T02:04:18.058Z,77.01
2022-08-26T02:07:21.609Z,77.60
2022-08-26T02:10:24.157Z,77.78
2022-08-26T02:13:31.367Z,78.56
2022-08-26T02:16:37.833Z,78.00
2022-08-26T02:19:47.211Z,78.53
2022-08-26T02:22:49.935Z,79.26
2022-08-26T02:26:07.146Z,79.68
2022-08-26T02:29:21.387Z,80.43
2022-08-26T02:32:24.199Z,81.74
2022-08-26T02:35:26.519Z,81.96
2022-08-26T02:38:29.681Z,81.13
2022-08-26T02:41:32.293Z,80.90
2022-08-26T02:44:35.072Z,82.04
2022-08-26T02:47:37.475Z,81.02
2022-08-26T02:50:40.202Z,80.74
2022-08-26T02:53:42.776Z,79.60
2022-08-26T02:56:45.517Z,79.48
2022-08-26T02:59:47.878Z,79.88
2022-08-26T03:02:50.373Z,79.28
2022-08-26T03:05:54.575Z,79.11
2022-08-26T03:08:56.741Z,79.43
2022-08-26T03:11:59.323Z,79.78
2022-08-26T03:15:01.699Z,79.19
2022-08-26T03:18:04.829Z,80.31
2022-08-26T03:21:08.562Z,79.12
2022-08-26T03:24:11.388Z,79.29
2022-08-26T03:27:14.375Z,78.55
2022-08-26T03:30:35.482Z,79.25
2022-08-26T03:33:37.622Z,78.23
2022-08-26T03:36:40.871Z,79.33
2022-08-26T03:39:43.855Z,78.63
2022-08-26T03:42:46.244Z,78.41
2022-08-26T03:45:48.434Z,78.56
2022-08-26T03:48:53.555Z,78.90
2022-08-26T03:51:55.883Z,78.74
2022-08-26T03:54:58.362Z,79.39
2022-08-26T03:58:01.167Z,80.16
2022-08-26T04:01:04.093Z,80.11
2022-08-26T04:04:06.569Z,80.61
2022-08-26T04:07:09.519Z,80.88
2022-08-26T04:10:14.765Z,81.34
2022-08-26T04:13:21.601Z,82.59
2022-08-26T04:16:23.774Z,81.93
2022-08-26T04:19:28.421Z,82.55
2022-08-26T04:22:30.527Z,83.26
2022-08-26T04:25:32.826Z,82.67
2022-08-26T04:28:34.924Z,82.07
2022-08-26T04:31:38.178Z,83.68
2022-08-26T04:34:40.873Z,83.18
2022-08-26T04:37:44.157Z,82.75
2022-08-26T04:40:46.683Z,83.17
2022-08-26T04:43:50.362Z,83.31
2022-08-26T04:46:54.238Z,82.69
2022-08-26T04:49:57.856Z,82.56
2022-08-26T04:53:00.217Z,82.82
2022-08-26T04:56:02.794Z,82.94
2022-08-26T04:59:16.825Z,82.69
2022-08-26T05:02:20.582Z,83.57
2022-08-26T05:05:22.705Z,81.28
2022-08-26T05:08:25.537Z,81.70
2022-08-26T05:11:27.797Z,79.35
2022-08-26T05:14:31.555Z,79.77
2022-08-26T05:17:36.554Z,79.32
2022-08-26T05:20:40.642Z,77.68
2022-08-26T05:23:42.856Z,77.23
2022-08-26T05:26:45.261Z,77.45
2022-08-26T05:29:48.194Z,80.59
2022-08-26T05:32:57.308Z,78.53
2022-08-26T05:36:07.522Z,79.01
2022-08-26T05:39:11.591Z,79.41
2022-08-26T05:42:13.618Z,78.79
2022-08-26T05:45:16.010Z,81.74
2022-08-26T05:48:24.105Z,82.86
2022-08-26T05:51:27.372Z,76.08
2022-08-26T05:54:34.771Z,76.29
2022-08-26T05:57:42.289Z,75.19
2022-08-26T06:00:45.242Z,76.51
2022-08-26T06:03:49.985Z,76.17
2022-08-26T06:06:52.379Z,74.05
2022-08-26T06:10:05.503Z,71.37
2022-08-26T06:13:18.372Z,71.18
2022-08-26T06:16:23.341Z,71.09
2022-08-26T06:19:26.268Z,72.73
2022-08-26T06:22:54.340Z,72.40
2022-08-26T06:25:57.838Z,68.71
2022-08-26T06:29:00.097Z,66.99
2022-08-26T06:32:04.818Z,66.06
2022-08-26T06:35:07.446Z,66.76
2022-08-26T06:38:15.602Z,64.13
2022-08-26T06:41:21.059Z,62.70
2022-08-26T06:44:23.300Z,61.30
2022-08-26T06:47:25.827Z,59.13
2022-08-26T06:50:30.616Z,57.73
2022-08-26T06:53:33.468Z,58.29
2022-08-26T06:56:39.668Z,57.51
2022-08-26T06:59:42.537Z,56.01
2022-08-26T07:02:46.889Z,56.60
2022-08-26T07:05:49.630Z,54.54
2022-08-26T07:09:04.971Z,52.82
2022-08-26T07:12:07.657Z,54.91
2022-08-26T07:15:10.394Z,49.43
2022-08-26T07:18:12.732Z,50.09
2022-08-26T07:21:17.307Z,49.37
2022-08-26T07:24:20.596Z,47.69
2022-08-26T07:27:23.267Z,49.21
2022-08-26T07:30:25.722Z,48.96
2022-08-26T07:33:29.537Z,48.63
2022-08-26T07:36:32.469Z,46.36
2022-08-26T07:39:34.980Z,45.10
2022-08-26T07:42:37.429Z,45.94
2022-08-26T07:45:39.604Z,45.51
2022-08-26T07:48:45.996Z,45.11
2022-08-26T07:51:49.768Z,44.22
2022-08-26T07:54:52.069Z,44.86
2022-08-26T07:57:54.152Z,42.88
2022-08-26T08:00:57.144Z,42.61
2022-08-26T08:04:01.137Z,40.62
2022-08-26T08:07:04.965Z,42.96
2022-08-26T08:10:11.507Z,41.48
2022-08-26T08:13:14.480Z,41.67
2022-08-26T08:16:17.171Z,41.39
2022-08-26T08:19:19.467Z,42.04
2022-08-26T08:22:23.656Z,41.13
2022-08-26T08:25:26.980Z,40.65
2022-08-26T08:28:29.213Z,40.01
2022-08-26T08:34:56.355Z,39.13
2022-08-26T08:37:58.754Z,37.83
2022-08-26T08:41:02.130Z,34.71
2022-08-26T08:44:12.208Z,36.94
2022-08-26T08:47:25.085Z,35.04
2022-08-26T08:50:37.808Z,35.19
2022-08-26T08:53:43.303Z,36.76
2022-08-26T08:56:57.978Z,37.07
2022-08-26T09:00:09.187Z,36.47
2022-08-26T09:03:24.048Z,37.62
2022-08-26T09:06:27.708Z,37.59
2022-08-26T09:09:51.938Z,35.31
2022-08-26T09:12:54.754Z,33.90
2022-08-26T09:16:03.116Z,34.73
2022-08-26T09:19:18.806Z,33.45
2022-08-26T09:22:35.940Z,33.70
2022-08-26T09:26:00.064Z,34.92
2022-08-26T09:29:09.949Z,33.53
2022-08-26T09:32:16.245Z,33.82
2022-08-26T09:35:35.814Z,31.49
2022-08-26T09:38:37.907Z,31.28
2022-08-26T09:41:41.925Z,32.73
2022-08-26T09:44:55.926Z,32.35
2022-08-26T09:48:01.323Z,33.65
2022-08-26T09:51:32.671Z,32.50
2022-08-26T09:54:35.578Z,30.51
2022-08-26T09:57:52.122Z,31.68
2022-08-26T10:00:57.312Z,29.05
2022-08-26T10:04:10.309Z,28.52
2022-08-26T10:07:13.421Z,28.18
2022-08-26T10:10:39.884Z,31.24
2022-08-26T10:13:46.633Z,26.96
2022-08-26T10:16:54.433Z,28.40
2022-08-26T10:20:01.363Z,27.35
2022-08-26T10:23:16.313Z,30.15
2022-08-26T10:26:30.727Z,28.99
2022-08-26T10:29:42.853Z,28.06
2022-08-26T10:32:53.921Z,29.39
2022-08-26T10:36:03.854Z,28.19
2022-08-26T10:39:09.849Z,28.97
2022-08-26T10:42:42.680Z,28.94
2022-08-26T10:45:51.383Z,27.44
2022-08-26T10:48:56.534Z,27.72
2022-08-26T10:52:18.549Z,28.56
2022-08-26T10:55:29.392Z,28.72
2022-08-26T10:58:37.166Z,29.31
2022-08-26T11:01:51.001Z,29.99
2022-08-26T11:04:57.811Z,29.35
2022-08-26T11:08:19.325Z,29.06
2022-08-26T11:11:45.387Z,26.67
2022-08-26T11:14:58.476Z,28.79
2022-08-26T11:18:07.368Z,28.27
2022-08-26T11:21:47.791Z,28.79
2022-08-26T11:24:54.751Z,28.60
2022-08-26T11:27:59.722Z,27.95
2022-08-26T11:31:04.477Z,26.17
2022-08-26T11:34:10.763Z,27.39
2022-08-26T11:37:15.878Z,26.97
2022-08-26T11:40:21.655Z,27.11
2022-08-26T11:43:29.892Z,27.76
2022-08-26T11:46:37.308Z,26.39
2022-08-26T11:49:39.772Z,26.39
2022-08-26T11:53:06.588Z,25.87
2022-08-26T11:56:15.737Z,25.41
2022-08-26T11:59:23.989Z,26.08
2022-08-26T12:02:26.954Z,25.69
2022-08-26T12:05:36.236Z,24.81
2022-08-26T12:08:43.812Z,25.23
2022-08-26T12:11:46.078Z,25.37
2022-08-26T12:14:49.270Z,25.71
2022-08-26T12:17:54.571Z,23.49
2022-08-26T12:21:00.082Z,23.11
2022-08-26T12:24:04.019Z,25.22
2022-08-26T12:27:22.962Z,25.09
2022-08-26T12:30:25.998Z,25.90
2022-08-26T12:33:29.269Z,25.21
2022-08-26T12:36:37.352Z,27.29
2022-08-26T12:39:43.321Z,26.89
2022-08-26T12:42:45.454Z,28.29
2022-08-26T12:46:00.042Z,26.26
2022-08-26T12:49:03.081Z,26.49
2022-08-26T12:52:07.552Z,23.96
2022-08-26T12:55:31.475Z,23.88
2022-08-26T12:58:38.503Z,23.12
2022-08-26T13:01:44.718Z,24.20
2022-08-26T13:04:47.337Z,24.86
2022-08-26T13:08:12.483Z,24.64
2022-08-26T13:11:20.572Z,25.13
2022-08-26T13:14:24.870Z,25.06
2022-08-26T13:17:28.834Z,24.72
2022-08-26T13:20:32.348Z,24.44
2022-08-26T13:23:35.445Z,25.92
2022-08-26T13:26:44.809Z,25.56
2022-08-26T13:29:47.258Z,24.22
2022-08-26T13:32:53.243Z,25.53
2022-08-26T13:35:56.485Z,25.89
2022-08-26T13:38:59.034Z,26.10
2022-08-26T13:42:01.535Z,23.92
2022-08-26T13:45:04.761Z,25.20
2022-08-26T13:48:08.320Z,25.30
2022-08-26T13:51:10.567Z,23.95
2022-08-26T13:54:12.905Z,25.80
2022-08-26T13:57:15.467Z,24.56
2022-08-26T14:00:18.302Z,25.06
2022-08-26T14:03:21.530Z,26.10
2022-08-26T14:06:23.963Z,25.85
2022-08-26T14:09:26.177Z,25.60
2022-08-26T14:12:29.344Z,27.71
2022-08-26T14:15:35.986Z,27.88
2022-08-26T14:18:42.573Z,28.25
2022-08-26T14:21:46.574Z,26.33
2022-08-26T14:24:49.546Z,27.50
2022-08-26T14:27:53.458Z,26.86
2022-08-26T14:30:58.240Z,27.36
2022-08-26T14:34:03.752Z,26.58
2022-08-26T14:37:07.742Z,27.31
2022-08-26T14:40:11.994Z,28.41
2022-08-26T14:43:17.348Z,28.10
2022-08-26T14:46:19.515Z,27.88
2022-08-26T14:49:23.815Z,27.79
2022-08-26T14:52:26.280Z,26.67
2022-08-26T14:55:29.338Z,27.15
2022-08-26T14:58:34.854Z,27.84
2022-08-26T15:01:37.758Z,27.21
2022-08-26T15:04:40.571Z,26.24
2022-08-26T15:07:43.145Z,28.25
2022-08-26T15:10:45.421Z,27.92
2022-08-26T15:13:47.935Z,27.13
2022-08-26T15:16:53.198Z,28.18
2022-08-26T15:19:55.540Z,28.24
2022-08-26T15:22:58.985Z,28.30
2022-08-26T15:26:10.030Z,27.49
2022-08-26T15:29:12.742Z,26.95
2022-08-26T15:32:15.156Z,28.08
2022-08-26T15:35:17.281Z,28.04
2022-08-26T15:38:19.648Z,26.25
2022-08-26T15:41:22.678Z,26.94
2022-08-26T15:44:25.853Z,27.82
2022-08-26T15:47:27.857Z,28.39
2022-08-26T15:50:31.351Z,26.68
2022-08-26T15:53:34.894Z,27.95
2022-08-26T15:56:38.711Z,27.62
2022-08-26T15:59:40.901Z,28.28
2022-08-26T16:02:43.515Z,26.42
2022-08-26T16:05:47.061Z,26.92
2022-08-26T16:08:50.131Z,26.81
2022-08-26T16:11:56.220Z,28.18
2022-08-26T16:14:58.552Z,26.41
2022-08-26T16:18:02.358Z,27.22
2022-08-26T16:21:13.162Z,28.82
2022-08-26T16:24:16.464Z,27.78
2022-08-26T16:27:18.776Z,28.83
2022-08-26T16:30:25.546Z,28.62
2022-08-26T16:33:29.735Z,29.52
2022-08-26T16:36:32.198Z,29.22
2022-08-26T16:39:34.625Z,29.15
2022-08-26T16:42:42.379Z,29.72
2022-08-26T16:45:44.793Z,31.25
2022-08-26T16:48:46.932Z,29.47
2022-08-26T16:51:49.509Z,34.69
2022-08-26T16:54:52.565Z,36.04
2022-08-26T16:57:55.048Z,36.90
2022-08-26T17:00:57.455Z,37.14
2022-08-26T17:03:59.801Z,38.87
2022-08-26T17:07:02.005Z,38.89
2022-08-26T17:10:06.640Z,39.42
2022-08-26T17:13:08.882Z,39.68
2022-08-26T17:16:12.609Z,39.67
2022-08-26T17:19:14.686Z,40.00
2022-08-26T17:22:17.512Z,41.58
2022-08-26T17:25:23.945Z,41.45
2022-08-26T17:28:26.225Z,42.37
2022-08-26T17:31:28.351Z,42.93
2022-08-26T17:34:30.639Z,43.37
2022-08-26T17:37:34.641Z,42.46
2022-08-26T17:40:37.094Z,43.27
2022-08-26T17:43:40.155Z,43.46
2022-08-26T17:46:43.575Z,43.13
2022-08-26T17:49:45.789Z,42.76
2022-08-26T17:52:48.159Z,42.76
2022-08-26T17:55:51.160Z,41.96
2022-08-26T17:58:56.411Z,43.38
2022-08-26T18:01:59.158Z,41.13
2022-08-26T18:05:01.498Z,40.32
2022-08-26T18:08:03.829Z,43.58
2022-08-26T18:11:15.830Z,44.86
2022-08-26T18:14:17.902Z,44.62
2022-08-26T18:17:20.181Z,44.00
2022-08-26T18:20:22.313Z,43.00
2022-08-26T18:23:24.811Z,42.87
2022-08-26T18:26:32.290Z,42.94
2022-08-26T18:29:34.749Z,44.03
2022-08-26T18:32:37.106Z,44.11
2022-08-26T18:35:40.582Z,43.60
2022-08-26T18:38:45.556Z,45.41
2022-08-26T18:41:52.555Z,46.61
2022-08-26T18:44:54.549Z,47.75
2022-08-26T18:47:57.424Z,46.47
2022-08-26T18:51:00.177Z,45.84
2022-08-26T18:54:05.634Z,46.60
2022-08-26T18:57:07.796Z,48.30
2022-08-26T19:00:11.735Z,47.69
2022-08-26T19:03:19.108Z,48.80
2022-08-26T19:06:23.353Z,51.46
2022-08-26T19:09:26.402Z,51.18
2022-08-26T19:12:29.601Z,51.08
2022-08-26T19:15:41.441Z,50.17
2022-08-26T19:18:44.528Z,51.72
2022-08-26T19:21:47.158Z,51.77
2022-08-26T19:24:49.417Z,50.58
2022-08-26T19:27:51.444Z,52.20
2022-08-26T19:30:53.849Z,52.95
2022-08-26T19:33:57.915Z,52.09
2022-08-26T19:37:00.660Z,52.24
2022-08-26T19:40:02.908Z,54.26
2022-08-26T19:43:05.383Z,54.22
2022-08-26T19:46:16.092Z,54.66
2022-08-26T19:49:18.682Z,55.24
2022-08-26T19:52:23.203Z,55.30
2022-08-26T19:55:32.212Z,55.40
2022-08-26T19:58:35.418Z,55.16
2022-08-26T20:01:38.245Z,56.05
2022-08-26T20:04:41.936Z,56.13
2022-08-26T20:07:44.364Z,56.84
2022-08-26T20:10:48.201Z,55.01
2022-08-26T20:13:55.279Z,55.29
2022-08-26T20:16:57.505Z,55.64
2022-08-26T20:20:31.616Z,56.50
2022-08-26T20:23:37.101Z,55.94
2022-08-26T20:26:41.818Z,56.34
2022-08-26T20:29:44.221Z,57.40
2022-08-26T20:32:46.738Z,56.54
2022-08-26T20:35:48.805Z,57.90
2022-08-26T20:38:51.145Z,58.21
2022-08-26T20:41:53.407Z,57.17
2022-08-26T20:44:55.726Z,58.88
2022-08-26T20:47:58.125Z,58.94
2022-08-26T20:51:01.314Z,57.61
2022-08-26T20:54:05.394Z,58.77
2022-08-26T20:57:07.824Z,57.87
2022-08-26T21:00:12.837Z,58.97
2022-08-26T21:03:16.558Z,58.74
2022-08-26T21:06:18.998Z,59.12
2022-08-26T21:09:24.685Z,58.85
2022-08-26T21:12:26.929Z,59.33
2022-08-26T21:15:29.705Z,58.81
2022-08-26T21:18:33.773Z,58.75
2022-08-26T21:21:36.539Z,60.21
2022-08-26T21:24:38.653Z,59.69
2022-08-26T21:27:41.046Z,60.07
2022-08-26T21:30:43.215Z,60.16
2022-08-26T21:33:45.717Z,60.44
2022-08-26T21:36:48.552Z,60.76
2022-08-26T21:39:55.640Z,60.41
2022-08-26T21:42:57.773Z,60.77
2022-08-26T21:46:11.762Z,61.47
2022-08-26T21:49:15.973Z,61.18
2022-08-26T21:52:18.300Z,61.34
2022-08-26T21:55:20.368Z,61.86
2022-08-26T21:58:22.830Z,61.55
2022-08-26T22:01:27.347Z,62.01
2022-08-26T22:04:29.704Z,61.92
2022-08-26T22:07:31.917Z,61.77
2022-08-26T22:10:34.352Z,62.63
2022-08-26T22:13:38.381Z,62.68
2022-08-26T22:16:40.867Z,63.07
2022-08-26T22:19:45.736Z,62.72
2022-08-26T22:22:49.269Z,63.58
2022-08-26T22:25:51.729Z,63.32
2022-08-26T22:28:58.558Z,63.46
2022-08-26T22:32:01.505Z,63.94
2022-08-26T22:35:11.405Z,63.96
2022-08-26T22:38:27.962Z,64.11
2022-08-26T22:41:30.330Z,64.04
2022-08-26T22:44:37.545Z,64.73
2022-08-26T22:47:40.499Z,64.71
2022-08-26T22:50:43.694Z,65.37
2022-08-26T22:53:46.300Z,64.84
2022-08-26T22:56:48.677Z,64.67
2022-08-26T22:59:51.051Z,64.70
2022-08-26T23:02:53.227Z,64.99
2022-08-26T23:05:56.004Z,65.75
2022-08-26T23:08:58.212Z,65.13
2022-08-26T23:12:00.586Z,64.41
2022-08-26T23:15:02.952Z,64.24
2022-08-26T23:18:05.514Z,63.48
2022-08-26T23:21:08.035Z,64.19
2022-08-26T23:24:11.012Z,64.72
2022-08-26T23:27:13.179Z,64.76
2022-08-26T23:30:20.003Z,65.68
2022-08-26T23:33:22.154Z,66.54
2022-08-26T23:36:24.700Z,66.42
2022-08-26T23:39:27.134Z,66.63
2022-08-26T23:42:29.492Z,67.05
2022-08-26T23:45:33.102Z,67.27
2022-08-26T23:48:35.420Z,67.49
2022-08-26T23:51:56.765Z,68.12
2022-08-26T23:54:59.229Z,68.23
2022-08-26T23:58:01.785Z,68.40
